createdAt,value
2023-03-05T00:00:31.618Z,4.43
2023-03-05T00:03:16.876Z,4.41
2023-03-05T00:06:08.405Z,4.45
2023-03-05T00:09:03.426Z,4.40
2023-03-05T00:11:54.387Z,4.53
2023-03-05T00:14:39.930Z,4.40
2023-03-05T00:17:31.404Z,4.36
2023-03-05T00:20:16.395Z,4.47
2023-03-05T00:23:08.373Z,4.41
2023-03-05T00:25:59.254Z,4.45
2023-03-05T00:28:51.372Z,4.44
2023-03-05T00:31:40.437Z,4.42
2023-03-05T00:34:34.381Z,4.48
2023-03-05T00:37:39.412Z,4.48
2023-03-05T00:40:31.449Z,4.36
2023-03-05T00:43:20.877Z,4.31
2023-03-05T00:46:15.446Z,4.30
2023-03-05T00:49:03.884Z,4.32
2023-03-05T00:51:58.148Z,4.31
2023-03-05T00:54:45.513Z,4.30
2023-03-05T00:57:36.390Z,4.37
2023-03-05T01:00:24.048Z,4.37
2023-03-05T01:03:18.389Z,4.27
2023-03-05T01:06:09.140Z,4.29
2023-03-05T01:09:01.361Z,4.34
2023-03-05T01:11:46.563Z,4.37
2023-03-05T01:14:42.372Z,4.36
2023-03-05T01:17:27.402Z,4.36
2023-03-05T01:20:20.362Z,4.30
2023-03-05T01:23:05.287Z,4.24
2023-03-05T01:26:05.380Z,4.28
2023-03-05T01:28:50.371Z,4.28
2023-03-05T01:31:41.424Z,4.17
2023-03-05T01:34:26.486Z,4.12
2023-03-05T01:37:20.374Z,4.19
2023-03-05T01:40:17.311Z,4.18
2023-03-05T01:43:22.380Z,4.23
2023-03-05T01:46:33.321Z,4.21
2023-03-05T01:49:34.398Z,4.23
2023-03-05T01:52:30.327Z,4.19
2023-03-05T01:55:22.805Z,4.19
2023-03-05T01:58:20.371Z,4.16
2023-03-05T02:01:05.627Z,4.16
2023-03-05T02:03:57.414Z,4.26
2023-03-05T02:06:43.354Z,4.24
2023-03-05T02:09:36.373Z,4.24
2023-03-05T02:12:22.008Z,4.25
2023-03-05T02:15:14.382Z,4.25
2023-03-05T02:18:02.587Z,4.21
2023-03-05T02:20:58.404Z,4.24
2023-03-05T02:23:43.408Z,4.19
2023-03-05T02:26:34.392Z,4.19
2023-03-05T02:29:22.659Z,4.12
2023-03-05T02:32:16.501Z,4.00
2023-03-05T02:35:01.813Z,4.03
2023-03-05T02:37:53.383Z,4.03
2023-03-05T02:40:46.572Z,4.06
2023-03-05T02:43:31.619Z,4.08
2023-03-05T02:46:23.369Z,4.09
2023-03-05T02:49:08.526Z,4.07
2023-03-05T02:52:00.381Z,4.07
2023-03-05T02:54:47.664Z,4.14
2023-03-05T02:57:39.417Z,4.10
2023-03-05T03:00:24.371Z,4.09
2023-03-05T03:03:16.466Z,4.05
2023-03-05T03:06:02.762Z,4.06
2023-03-05T03:08:57.397Z,4.05
2023-03-05T03:11:42.488Z,3.96
2023-03-05T03:14:34.394Z,3.99
2023-03-05T03:17:19.550Z,4.02
2023-03-05T03:20:14.409Z,3.97
2023-03-05T03:23:06.404Z,4.01
2023-03-05T03:25:58.385Z,3.93
2023-03-05T03:28:50.432Z,3.90
2023-03-05T03:31:42.384Z,3.91
2023-03-05T03:34:36.398Z,3.94
2023-03-05T03:37:32.573Z,3.91
2023-03-05T03:40:34.415Z,3.95
2023-03-05T03:43:22.108Z,3.97
2023-03-05T03:46:14.416Z,3.92
2023-03-05T03:48:59.419Z,3.99
2023-03-05T03:51:51.398Z,3.88
2023-03-05T03:54:42.429Z,3.90
2023-03-05T03:57:29.018Z,3.90
2023-03-05T04:00:22.365Z,3.90
2023-03-05T04:03:09.983Z,3.93
2023-03-05T04:06:11.419Z,3.95
2023-03-05T04:08:58.820Z,3.90
2023-03-05T04:11:53.044Z,3.89
2023-03-05T04:14:38.245Z,3.85
2023-03-05T04:17:29.393Z,3.89
2023-03-05T04:20:14.978Z,3.81
2023-03-05T04:23:06.406Z,3.93
2023-03-05T04:26:04.697Z,3.92
2023-03-05T04:28:52.125Z,3.95
2023-03-05T04:31:43.434Z,3.98
2023-03-05T04:34:28.500Z,3.95
2023-03-05T04:37:19.393Z,3.90
2023-03-05T04:40:05.090Z,3.90
2023-03-05T04:42:56.387Z,3.88
2023-03-05T04:45:42.968Z,3.85
2023-03-05T04:48:34.401Z,3.85
2023-03-05T04:51:25.409Z,3.88
2023-03-05T04:54:19.403Z,3.86
2023-03-05T04:57:10.395Z,3.69
2023-03-05T04:59:55.562Z,3.71
2023-03-05T05:02:57.448Z,3.71
2023-03-05T05:05:42.281Z,3.73
2023-03-05T05:08:34.434Z,3.68
2023-03-05T05:11:19.565Z,3.68
2023-03-05T05:14:11.421Z,3.68
2023-03-05T05:17:02.388Z,3.56
2023-03-05T05:19:47.225Z,3.59
2023-03-05T05:22:39.402Z,3.54
2023-03-05T05:25:27.348Z,3.59
2023-03-05T05:28:19.409Z,3.64
2023-03-05T05:31:15.465Z,3.58
2023-03-05T05:34:00.495Z,3.60
2023-03-05T05:36:54.430Z,3.63
2023-03-05T05:39:57.617Z,3.68
2023-03-05T05:42:49.410Z,3.62
2023-03-05T05:45:34.772Z,3.64
2023-03-05T05:48:26.411Z,3.52
2023-03-05T05:51:14.831Z,3.63
2023-03-05T05:54:10.622Z,3.62
2023-03-05T05:57:02.453Z,3.62
2023-03-05T05:59:47.236Z,3.63
2023-03-05T06:02:39.441Z,3.52
2023-03-05T06:05:34.426Z,3.65
2023-03-05T06:08:19.517Z,3.51
2023-03-05T06:11:18.952Z,3.50
2023-03-05T06:14:11.406Z,3.49
2023-03-05T06:17:03.449Z,3.43
2023-03-05T06:19:54.416Z,3.50
2023-03-05T06:22:40.341Z,3.53
2023-03-05T06:25:34.416Z,3.51
2023-03-05T06:28:20.178Z,3.55
2023-03-05T06:31:23.424Z,3.60
2023-03-05T06:34:08.273Z,3.53
2023-03-05T06:37:07.432Z,3.54
2023-03-05T06:39:58.691Z,3.50
2023-03-05T06:42:50.432Z,3.52
2023-03-05T06:45:35.626Z,3.49
2023-03-05T06:48:26.444Z,3.56
2023-03-05T06:51:31.420Z,3.62
2023-03-05T06:54:17.313Z,3.67
2023-03-05T06:57:09.420Z,3.55
2023-03-05T06:59:59.765Z,3.46
2023-03-05T07:02:51.483Z,3.57
2023-03-05T07:05:47.430Z,3.52
2023-03-05T07:08:41.449Z,3.51
2023-03-05T07:11:33.429Z,3.51
2023-03-05T07:14:20.895Z,3.62
2023-03-05T07:17:18.197Z,3.64
2023-03-05T07:20:12.313Z,3.57
2023-03-05T07:23:03.439Z,3.64
2023-03-05T07:25:50.376Z,3.67
2023-03-05T07:28:42.664Z,3.68
2023-03-05T07:31:37.428Z,3.68
2023-03-05T07:34:22.657Z,3.76
2023-03-05T07:37:17.664Z,3.98
2023-03-05T07:40:04.389Z,3.91
2023-03-05T07:42:55.437Z,3.88
2023-03-05T07:45:42.461Z,3.81
2023-03-05T07:48:39.263Z,3.91
2023-03-05T07:51:36.457Z,3.95
2023-03-05T07:54:22.532Z,3.91
2023-03-05T07:57:19.825Z,3.94
2023-03-05T08:00:13.462Z,4.08
2023-03-05T08:02:58.259Z,4.10
2023-03-05T08:05:51.432Z,4.06
2023-03-05T08:08:36.627Z,4.12
2023-03-05T08:11:28.452Z,3.97
2023-03-05T08:14:20.450Z,4.07
2023-03-05T08:17:13.455Z,3.95
2023-03-05T08:20:06.459Z,3.92
2023-03-05T08:22:51.622Z,3.99
2023-03-05T08:25:44.458Z,3.98
2023-03-05T08:28:29.190Z,4.13
2023-03-05T08:31:23.520Z,4.07
2023-03-05T08:34:08.371Z,4.11
2023-03-05T08:36:59.449Z,3.99
2023-03-05T08:39:50.504Z,4.16
2023-03-05T08:42:42.436Z,4.26
2023-03-05T08:45:28.416Z,4.37
2023-03-05T08:48:20.463Z,4.34
2023-03-05T08:51:26.452Z,4.34
2023-03-05T08:54:11.190Z,4.38
2023-03-05T08:57:02.436Z,4.30
2023-03-05T08:59:54.461Z,4.26
2023-03-05T09:02:39.874Z,4.31
2023-03-05T09:05:31.460Z,4.45
2023-03-05T09:08:17.439Z,4.38
2023-03-05T09:11:10.441Z,4.50
2023-03-05T09:13:55.252Z,4.52
2023-03-05T09:16:49.268Z,4.51
2023-03-05T09:19:40.469Z,4.64
2023-03-05T09:22:25.749Z,4.62
2023-03-05T09:25:18.471Z,4.41
2023-03-05T09:28:03.487Z,4.32
2023-03-05T09:30:56.423Z,4.47
2023-03-05T09:33:48.474Z,4.65
2023-03-05T09:36:33.750Z,4.95
2023-03-05T09:39:32.467Z,5.51
2023-03-05T09:42:29.393Z,6.64
2023-03-05T09:45:28.547Z,7.15
2023-03-05T09:48:20.621Z,6.97
2023-03-05T09:51:19.473Z,8.02
2023-03-05T09:54:19.467Z,8.17
2023-03-05T09:57:06.703Z,7.20
2023-03-05T10:00:04.465Z,6.13
2023-03-05T10:03:04.546Z,5.91
2023-03-05T10:06:11.077Z,5.43
2023-03-05T10:09:08.461Z,5.14
2023-03-05T10:11:53.583Z,4.98
2023-03-05T10:14:46.456Z,4.80
2023-03-05T10:18:04.472Z,4.93
2023-03-05T10:21:04.463Z,4.99
2023-03-05T10:23:55.479Z,5.08
2023-03-05T10:26:58.530Z,5.22
2023-03-05T10:29:56.644Z,5.43
2023-03-05T10:33:00.468Z,5.56
2023-03-05T10:36:00.472Z,5.77
2023-03-05T10:39:01.519Z,5.58
2023-03-05T10:42:14.469Z,5.54
2023-03-05T10:45:08.480Z,5.22
2023-03-05T10:48:07.421Z,5.20
2023-03-05T10:51:06.483Z,5.11
2023-03-05T10:54:10.214Z,5.34
2023-03-05T10:57:25.478Z,5.16
2023-03-05T11:00:22.186Z,5.38
2023-03-05T11:03:19.480Z,5.43
2023-03-05T11:06:04.778Z,5.24
2023-03-05T11:08:56.485Z,5.08
2023-03-05T11:11:47.486Z,5.02
2023-03-05T11:14:33.594Z,4.80
2023-03-05T11:17:34.475Z,4.53
2023-03-05T11:20:31.686Z,4.60
2023-03-05T11:23:30.492Z,5.01
2023-03-05T11:26:25.246Z,5.11
2023-03-05T11:29:25.509Z,5.38
2023-03-05T11:32:22.163Z,5.56
2023-03-05T11:35:38.524Z,5.53
2023-03-05T11:38:36.464Z,5.74
2023-03-05T11:41:41.523Z,5.77
2023-03-05T11:44:41.482Z,5.95
2023-03-05T11:47:37.268Z,6.06
2023-03-05T11:50:31.492Z,5.81
2023-03-05T11:53:23.730Z,5.91
2023-03-05T11:56:33.509Z,5.76
2023-03-05T11:59:46.475Z,5.93
2023-03-05T12:02:38.570Z,5.73
2023-03-05T12:05:28.019Z,5.36
2023-03-05T12:08:26.498Z,5.19
2023-03-05T12:11:26.210Z,5.43
2023-03-05T12:14:35.516Z,5.29
2023-03-05T12:17:39.829Z,5.74
2023-03-05T12:20:49.010Z,6.03
2023-03-05T12:23:58.492Z,5.60
2023-03-05T12:27:02.509Z,5.57
2023-03-05T12:29:52.224Z,5.47
2023-03-05T12:32:43.538Z,5.38
2023-03-05T12:35:39.627Z,5.32
2023-03-05T12:38:39.486Z,5.34
2023-03-05T12:41:32.908Z,5.46
2023-03-05T12:44:27.496Z,5.29
2023-03-05T12:47:12.584Z,5.28
2023-03-05T12:50:07.502Z,5.28
2023-03-05T12:53:18.453Z,5.16
2023-03-05T12:56:22.509Z,5.03
2023-03-05T12:59:16.503Z,5.10
2023-03-05T13:02:04.891Z,5.08
2023-03-05T13:04:59.504Z,4.94
2023-03-05T13:07:44.566Z,4.99
2023-03-05T13:10:36.504Z,5.12
2023-03-05T13:13:23.756Z,5.11
2023-03-05T13:16:31.524Z,5.19
2023-03-05T13:19:19.115Z,5.09
2023-03-05T13:22:17.512Z,5.15
2023-03-05T13:25:26.544Z,4.99
2023-03-05T13:28:14.498Z,5.05
2023-03-05T13:31:09.520Z,5.08
2023-03-05T13:34:03.278Z,5.22
2023-03-05T13:37:01.508Z,5.29
2023-03-05T13:40:31.513Z,5.51
2023-03-05T13:43:26.489Z,5.20
2023-03-05T13:46:11.963Z,5.45
2023-03-05T13:49:22.560Z,5.31
2023-03-05T13:52:07.710Z,5.35
2023-03-05T13:54:59.555Z,5.33
2023-03-05T13:57:50.882Z,5.32
2023-03-05T14:00:45.548Z,5.41
2023-03-05T14:03:37.494Z,5.39
2023-03-05T14:06:25.061Z,5.45
2023-03-05T14:09:37.502Z,5.24
2023-03-05T14:12:37.691Z,5.26
2023-03-05T14:15:35.498Z,5.30
2023-03-05T14:18:20.782Z,5.22
2023-03-05T14:21:15.508Z,5.29
2023-03-05T14:24:12.168Z,5.46
2023-03-05T14:27:11.507Z,5.62
2023-03-05T14:29:56.388Z,5.66
2023-03-05T14:32:51.519Z,5.75
2023-03-05T14:35:36.806Z,5.74
2023-03-05T14:38:31.520Z,5.53
2023-03-05T14:41:37.624Z,5.52
2023-03-05T14:44:31.521Z,5.46
2023-03-05T14:47:18.946Z,5.29
2023-03-05T14:50:11.537Z,5.36
2023-03-05T14:53:07.529Z,5.45
2023-03-05T14:56:03.559Z,5.36
2023-03-05T14:58:48.585Z,5.59
2023-03-05T15:01:40.667Z,5.65
2023-03-05T15:04:25.819Z,5.45
2023-03-05T15:07:23.517Z,5.43
2023-03-05T15:10:09.464Z,5.38
2023-03-05T15:13:03.512Z,5.37
2023-03-05T15:15:50.357Z,5.31
2023-03-05T15:18:41.514Z,5.20
2023-03-05T15:21:26.399Z,5.14
2023-03-05T15:24:19.529Z,5.12
2023-03-05T15:27:12.513Z,5.12
2023-03-05T15:29:59.427Z,5.17
2023-03-05T15:32:50.522Z,5.18
2023-03-05T15:35:36.095Z,5.24
2023-03-05T15:38:35.525Z,5.21
2023-03-05T15:41:28.516Z,5.09
2023-03-05T15:44:13.592Z,5.02
2023-03-05T15:47:05.517Z,5.03
2023-03-05T15:49:57.526Z,5.04
2023-03-05T15:52:49.534Z,5.12
2023-03-05T15:55:39.491Z,5.10
2023-03-05T15:58:31.531Z,5.14
2023-03-05T16:01:19.155Z,5.11
2023-03-05T16:04:11.642Z,4.99
2023-03-05T16:06:59.294Z,4.98
2023-03-05T16:09:54.540Z,5.02
2023-03-05T16:12:49.526Z,4.98
2023-03-05T16:15:41.578Z,5.02
2023-03-05T16:18:33.545Z,4.98
2023-03-05T16:21:25.541Z,4.88
2023-03-05T16:24:10.517Z,4.82
2023-03-05T16:27:04.528Z,4.87
2023-03-05T16:29:51.008Z,4.87
2023-03-05T16:32:44.560Z,4.76
2023-03-05T16:35:29.832Z,4.79
2023-03-05T16:38:22.538Z,4.69
2023-03-05T16:41:17.968Z,4.71
2023-03-05T16:44:14.571Z,4.59
2023-03-05T16:46:59.857Z,4.55
2023-03-05T16:49:53.539Z,4.50
2023-03-05T16:52:38.569Z,4.49
2023-03-05T16:55:30.542Z,4.56
2023-03-05T16:58:15.756Z,4.46
2023-03-05T17:01:07.649Z,4.43
2023-03-05T17:03:53.439Z,4.44
2023-03-05T17:06:44.562Z,4.37
2023-03-05T17:09:30.138Z,4.42
2023-03-05T17:12:28.896Z,4.35
2023-03-05T17:15:16.373Z,4.38
2023-03-05T17:18:08.532Z,4.38
2023-03-05T17:20:53.789Z,4.29
2023-03-05T17:23:47.080Z,4.32
2023-03-05T17:26:32.698Z,4.33
2023-03-05T17:29:25.540Z,4.36
2023-03-05T17:32:11.250Z,4.32
2023-03-05T17:35:05.489Z,4.29
2023-03-05T17:37:57.637Z,4.28
2023-03-05T17:40:55.563Z,4.26
2023-03-05T17:43:42.156Z,4.32
2023-03-05T17:46:33.560Z,4.33
2023-03-05T17:49:18.506Z,4.27
2023-03-05T17:52:10.549Z,4.24
2023-03-05T17:54:56.111Z,4.13
2023-03-05T17:57:53.077Z,4.18
2023-03-05T18:00:40.729Z,4.17
2023-03-05T18:03:34.544Z,4.17
2023-03-05T18:06:19.509Z,4.12
2023-03-05T18:09:11.553Z,4.16
2023-03-05T18:11:56.770Z,4.19
2023-03-05T18:14:48.554Z,4.17
2023-03-05T18:17:33.599Z,4.18
2023-03-05T18:20:33.560Z,4.21
2023-03-05T18:23:18.782Z,4.10
2023-03-05T18:26:10.571Z,4.12
2023-03-05T18:28:55.728Z,4.17
2023-03-05T18:31:46.568Z,4.21
2023-03-05T18:34:31.645Z,4.19
2023-03-05T18:37:22.543Z,4.15
2023-03-05T18:40:14.600Z,4.12
2023-03-05T18:43:09.546Z,4.13
2023-03-05T18:45:55.787Z,4.11
2023-03-05T18:48:54.547Z,4.15
2023-03-05T18:51:41.569Z,4.15
2023-03-05T18:54:33.540Z,4.07
2023-03-05T18:57:18.446Z,4.07
2023-03-05T19:00:10.588Z,4.08
2023-03-05T19:02:56.565Z,4.14
2023-03-05T19:05:48.563Z,4.12
2023-03-05T19:08:34.052Z,4.07
2023-03-05T19:11:27.561Z,4.06
2023-03-05T19:14:12.520Z,4.05
2023-03-05T19:17:05.365Z,4.07
2023-03-05T19:19:52.401Z,4.02
2023-03-05T19:22:43.557Z,3.95
2023-03-05T19:25:28.355Z,4.01
2023-03-05T19:28:19.574Z,4.04
2023-03-05T19:31:07.058Z,4.00
2023-03-05T19:34:00.562Z,3.92
2023-03-05T19:36:45.254Z,3.83
2023-03-05T19:39:37.561Z,3.83
2023-03-05T19:42:22.375Z,3.74
2023-03-05T19:45:14.566Z,3.73
2023-03-05T19:47:59.718Z,3.60
2023-03-05T19:50:51.570Z,3.68
2023-03-05T19:53:37.309Z,3.60
2023-03-05T19:56:29.568Z,3.51
2023-03-05T19:59:17.706Z,3.55
2023-03-05T20:02:12.553Z,3.61
2023-03-05T20:05:04.556Z,3.53
2023-03-05T20:07:49.442Z,3.60
2023-03-05T20:10:43.570Z,3.56
2023-03-05T20:13:29.019Z,3.51
2023-03-05T20:16:44.598Z,3.49
2023-03-05T20:19:30.552Z,3.47
2023-03-05T20:22:22.582Z,3.42
2023-03-05T20:25:07.922Z,3.37
2023-03-05T20:27:59.567Z,3.36
2023-03-05T20:30:44.759Z,3.40
2023-03-05T20:33:37.561Z,3.31
2023-03-05T20:36:24.000Z,3.30
2023-03-05T20:39:15.571Z,3.40
2023-03-05T20:42:06.778Z,3.38
2023-03-05T20:44:58.567Z,3.38
2023-03-05T20:47:53.562Z,3.34
2023-03-05T20:50:38.630Z,3.31
2023-03-05T20:53:30.571Z,3.39
2023-03-05T20:56:16.841Z,3.32
2023-03-05T20:59:13.584Z,3.32
2023-03-05T21:01:59.099Z,3.27
2023-03-05T21:04:52.581Z,3.33
2023-03-05T21:07:43.593Z,3.26
2023-03-05T21:10:28.409Z,3.31
2023-03-05T21:13:19.598Z,3.35
2023-03-05T21:16:09.475Z,3.21
2023-03-05T21:19:03.578Z,3.24
2023-03-05T21:21:54.578Z,3.23
2023-03-05T21:24:53.768Z,3.31
2023-03-05T21:27:45.594Z,3.34
2023-03-05T21:30:41.868Z,3.26
2023-03-05T21:33:36.589Z,3.23
2023-03-05T21:36:21.835Z,3.10
2023-03-05T21:39:13.582Z,3.18
2023-03-05T21:42:11.598Z,3.18
2023-03-05T21:44:56.597Z,3.19
2023-03-05T21:47:48.606Z,3.14
2023-03-05T21:50:41.617Z,3.12
2023-03-05T21:53:33.819Z,3.10
2023-03-05T21:56:20.315Z,3.10
2023-03-05T21:59:13.798Z,3.11
2023-03-05T22:01:58.856Z,3.09
2023-03-05T22:04:53.565Z,3.08
2023-03-05T22:07:39.764Z,3.10
2023-03-05T22:10:31.572Z,3.09
2023-03-05T22:13:24.614Z,3.14
2023-03-05T22:16:11.360Z,3.23
2023-03-05T22:19:02.579Z,3.30
2023-03-05T22:21:50.331Z,3.32
2023-03-05T22:24:43.935Z,3.18
2023-03-05T22:27:31.988Z,3.15
2023-03-05T22:30:23.569Z,3.19
2023-03-05T22:33:09.562Z,3.19
2023-03-05T22:36:01.598Z,3.16
2023-03-05T22:39:06.586Z,3.17
2023-03-05T22:41:57.576Z,3.16
2023-03-05T22:44:49.584Z,3.17
2023-03-05T22:47:41.645Z,3.15
2023-03-05T22:50:26.796Z,3.15
2023-03-05T22:53:18.585Z,3.16
2023-03-05T22:56:08.691Z,3.18
2023-03-05T22:59:00.592Z,3.14
2023-03-05T23:01:45.673Z,3.15
2023-03-05T23:04:55.604Z,3.16
2023-03-05T23:07:41.909Z,3.13
2023-03-05T23:10:36.587Z,3.12
2023-03-05T23:13:21.809Z,3.12
2023-03-05T23:16:14.694Z,3.07
2023-03-05T23:18:59.475Z,3.06
2023-03-05T23:21:52.608Z,3.01
2023-03-05T23:24:37.418Z,2.96
2023-03-05T23:27:28.601Z,3.02
2023-03-05T23:30:19.448Z,2.94
2023-03-05T23:33:21.599Z,2.83
2023-03-05T23:36:06.627Z,2.78
2023-03-05T23:38:59.602Z,2.73
2023-03-05T23:41:57.590Z,2.66
2023-03-05T23:44:42.482Z,2.64
2023-03-05T23:47:33.628Z,2.53
2023-03-05T23:50:21.594Z,2.56
2023-03-05T23:53:14.863Z,2.61
2023-03-05T23:56:00.115Z,2.59
2023-03-05T23:58:53.563Z,2.58
